createdAt,value
2019-06-07T00:01:55.007Z,101116.50
2019-06-07T00:04:25.313Z,101121.34
2019-06-07T00:06:55.745Z,101117.39
2019-06-07T00:09:25.959Z,101115.23
2019-06-07T00:11:56.178Z,101118.19
2019-06-07T00:14:27.911Z,101119.56
2019-06-07T00:16:58.208Z,101115.88
2019-06-07T00:19:28.368Z,101115.91
2019-06-07T00:22:22.567Z,101116.11
2019-06-07T00:24:30.556Z,101115.81
2019-06-07T00:27:00.794Z,101113.14
2019-06-07T00:29:31.029Z,101114.86
2019-06-07T00:32:01.284Z,101112.77
2019-06-07T00:34:31.471Z,101115.33
2019-06-07T00:37:02.664Z,101112.48
2019-06-07T00:39:32.888Z,101115.39
2019-06-07T00:42:03.207Z,101112.75
2019-06-07T00:44:33.388Z,101109.89
2019-06-07T00:47:04.087Z,101116.19
2019-06-07T00:49:41.144Z,101114.50
2019-06-07T00:52:07.304Z,101127.08
2019-06-07T00:54:37.613Z,101120.94
2019-06-07T00:57:07.918Z,101123.31
2019-06-07T00:59:38.120Z,101129.74
2019-06-07T01:02:08.312Z,101123.62
2019-06-07T01:04:38.515Z,101122.48
2019-06-07T01:07:08.735Z,101119.52
2019-06-07T01:09:38.956Z,101110.76
2019-06-07T01:12:09.127Z,101108.28
2019-06-07T01:14:39.826Z,101108.88
2019-06-07T01:17:29.124Z,101113.38
2019-06-07T01:19:48.362Z,101109.17
2019-06-07T01:22:20.633Z,101114.52
2019-06-07T01:24:50.420Z,101115.18
2019-06-07T01:27:22.689Z,101108.14
2019-06-07T01:29:52.468Z,101109.17
2019-06-07T01:32:24.617Z,101107.47
2019-06-07T01:34:55.681Z,101113.86
2019-06-07T01:37:27.872Z,101108.63
2019-06-07T01:39:57.866Z,101108.32
2019-06-07T01:42:29.461Z,101109.50
2019-06-07T01:44:59.946Z,101106.36
2019-06-07T01:47:32.218Z,101111.91
2019-06-07T01:50:02.266Z,101113.31
2019-06-07T01:52:32.480Z,101106.27
2019-06-07T01:55:02.687Z,101106.75
2019-06-07T01:57:45.574Z,101102.13
2019-06-07T02:00:07.844Z,101109.59
2019-06-07T02:02:38.084Z,101099.73
2019-06-07T02:05:08.567Z,101102.61
2019-06-07T02:07:38.775Z,101103.11
2019-06-07T02:10:10.390Z,101107.20
2019-06-07T02:12:43.441Z,101098.08
2019-06-07T02:15:12.738Z,101103.91
2019-06-07T02:17:42.985Z,101095.44
2019-06-07T02:20:13.313Z,101102.72
2019-06-07T02:22:43.510Z,101089.08
2019-06-07T02:25:37.245Z,101087.96
2019-06-07T02:27:46.475Z,101088.48
2019-06-07T02:30:40.317Z,101084.54
2019-06-07T02:32:49.831Z,101080.61
2019-06-07T02:35:25.580Z,101077.56
2019-06-07T02:37:53.716Z,101079.09
2019-06-07T02:40:27.094Z,101088.09
2019-06-07T02:42:56.307Z,101080.11
2019-06-07T02:45:29.910Z,101078.88
2019-06-07T02:48:01.158Z,101062.56
2019-06-07T02:50:36.462Z,101063.10
2019-06-07T02:53:03.903Z,101071.23
2019-06-07T02:56:26.301Z,101071.72
2019-06-07T02:58:08.093Z,101066.49
2019-06-07T03:01:07.600Z,101073.27
2019-06-07T03:03:22.368Z,101071.94
2019-06-07T03:06:03.345Z,101073.89
2019-06-07T03:08:36.589Z,101068.56
2019-06-07T03:11:07.771Z,101068.23
2019-06-07T03:13:42.308Z,101067.81
2019-06-07T03:16:14.343Z,101066.14
2019-06-07T03:19:05.962Z,101068.39
2019-06-07T03:21:44.150Z,101072.38
2019-06-07T03:24:14.316Z,101084.36
2019-06-07T03:27:32.244Z,101086.07
2019-06-07T03:29:16.829Z,101085.73
2019-06-07T03:31:48.300Z,101088.91
2019-06-07T03:34:23.249Z,101093.44
2019-06-07T03:36:53.473Z,101097.00
2019-06-07T03:39:25.166Z,101099.09
2019-06-07T03:42:05.583Z,101099.95
2019-06-07T03:44:28.574Z,101094.96
2019-06-07T03:46:59.621Z,101099.94
2019-06-07T03:49:37.517Z,101100.33
2019-06-07T03:52:10.186Z,101094.19
2019-06-07T03:54:40.493Z,101098.00
2019-06-07T03:57:10.713Z,101095.25
2019-06-07T03:59:43.097Z,101098.71
2019-06-07T04:02:20.023Z,101100.42
2019-06-07T04:04:50.198Z,101100.75
2019-06-07T04:07:21.708Z,101094.00
2019-06-07T04:09:51.963Z,101097.34
2019-06-07T04:12:22.121Z,101100.11
2019-06-07T04:14:52.322Z,101099.92
2019-06-07T04:17:44.573Z,101105.58
2019-06-07T04:20:09.310Z,101108.71
2019-06-07T04:22:42.435Z,101110.27
2019-06-07T04:25:13.441Z,101105.73
2019-06-07T04:27:43.623Z,101113.83
2019-06-07T04:30:15.646Z,101119.03
2019-06-07T04:32:47.957Z,101120.91
2019-06-07T04:35:18.513Z,101121.77
2019-06-07T04:37:49.142Z,101112.59
2019-06-07T04:40:21.453Z,101123.94
2019-06-07T04:42:54.058Z,101120.78
2019-06-07T04:45:39.733Z,101116.83
2019-06-07T04:48:06.850Z,101117.43
2019-06-07T04:50:40.332Z,101111.83
2019-06-07T04:53:09.688Z,101108.86
2019-06-07T04:55:51.080Z,101100.05
2019-06-07T04:58:23.982Z,101100.84
2019-06-07T05:01:02.569Z,101098.03
2019-06-07T05:03:26.574Z,101100.12
2019-06-07T05:05:56.778Z,101106.09
2019-06-07T05:08:29.822Z,101103.14
2019-06-07T05:10:58.942Z,101104.30
2019-06-07T05:13:31.489Z,101105.70
2019-06-07T05:16:01.099Z,101110.12
2019-06-07T05:18:33.676Z,101110.23
2019-06-07T05:21:06.292Z,101122.34
2019-06-07T05:26:08.374Z,101118.86
2019-06-07T05:28:42.294Z,101114.11
2019-06-07T05:31:11.430Z,101106.31
2019-06-07T05:33:43.578Z,101107.20
2019-06-07T05:36:15.052Z,101103.14
2019-06-07T05:38:45.378Z,101098.45
2019-06-07T05:41:16.908Z,101097.05
2019-06-07T05:44:00.254Z,101103.89
2019-06-07T05:46:19.068Z,101107.00
2019-06-07T05:48:49.256Z,101107.28
2019-06-07T05:51:19.489Z,101104.45
2019-06-07T05:53:49.766Z,101104.62
2019-06-07T05:56:19.976Z,101094.99
2019-06-07T05:58:50.223Z,101096.75
2019-06-07T06:01:42.975Z,101098.27
2019-06-07T06:03:52.329Z,101102.81
2019-06-07T06:06:22.626Z,101103.42
2019-06-07T06:09:12.947Z,101093.56
2019-06-07T06:11:43.225Z,101104.91
2019-06-07T06:14:07.299Z,101093.01
2019-06-07T06:16:32.462Z,101091.78
2019-06-07T06:19:03.668Z,101096.09
2019-06-07T06:21:36.194Z,101098.98
2019-06-07T06:24:06.419Z,101095.81
2019-06-07T06:26:40.789Z,101089.93
2019-06-07T06:29:10.193Z,101092.74
2019-06-07T06:31:49.342Z,101079.83
2019-06-07T06:34:12.809Z,101075.66
2019-06-07T06:36:45.584Z,101078.91
2019-06-07T06:39:15.088Z,101072.29
2019-06-07T06:41:54.455Z,101072.64
2019-06-07T06:44:17.370Z,101076.52
2019-06-07T06:46:57.069Z,101075.31
2019-06-07T06:49:20.037Z,101072.30
2019-06-07T06:51:53.408Z,101072.94
2019-06-07T06:54:39.504Z,101071.52
2019-06-07T06:57:17.158Z,101073.54
2019-06-07T06:59:38.604Z,101079.27
2019-06-07T07:01:58.172Z,101083.05
2019-06-07T07:04:28.466Z,101083.19
2019-06-07T07:06:59.128Z,101076.78
2019-06-07T07:09:29.734Z,101086.90
2019-06-07T07:12:11.109Z,101084.30
2019-06-07T07:14:31.894Z,101083.91
2019-06-07T07:17:02.163Z,101081.37
2019-06-07T07:19:32.329Z,101078.83
2019-06-07T07:22:02.531Z,101081.91
2019-06-07T07:24:32.727Z,101080.02
2019-06-07T07:27:02.967Z,101077.55
2019-06-07T07:29:33.202Z,101072.05
2019-06-07T07:32:03.422Z,101075.58
2019-06-07T07:34:36.889Z,101068.08
2019-06-07T07:37:06.493Z,101069.61
2019-06-07T07:39:36.693Z,101061.05
2019-06-07T07:42:20.768Z,101063.86
2019-06-07T07:44:39.921Z,101060.09
2019-06-07T07:47:10.243Z,101053.03
2019-06-07T07:49:40.522Z,101051.84
2019-06-07T07:52:10.763Z,101054.14
2019-06-07T07:54:41.057Z,101048.06
2019-06-07T07:57:11.261Z,101035.38
2019-06-07T07:59:54.038Z,101040.27
2019-06-07T08:02:13.381Z,101029.15
2019-06-07T08:05:13.659Z,101030.66
2019-06-07T08:07:15.597Z,101030.95
2019-06-07T08:09:47.430Z,101021.52
2019-06-07T08:12:17.781Z,101008.73
2019-06-07T08:14:50.261Z,101013.06
2019-06-07T08:17:20.139Z,101003.75
2019-06-07T08:19:52.199Z,100997.73
2019-06-07T08:22:22.893Z,100998.64
2019-06-07T08:24:55.298Z,100996.94
2019-06-07T08:27:26.943Z,100996.09
2019-06-07T08:30:15.751Z,101001.51
2019-06-07T08:32:29.217Z,100990.34
2019-06-07T08:35:03.336Z,100994.80
2019-06-07T08:38:14.313Z,100996.88
2019-06-07T08:40:04.473Z,100989.76
2019-06-07T08:42:48.442Z,100999.12
2019-06-07T08:45:11.459Z,100990.05
2019-06-07T08:48:07.464Z,100989.10
2019-06-07T08:50:31.391Z,100983.71
2019-06-07T08:53:11.502Z,100972.37
2019-06-07T08:55:33.627Z,100969.42
2019-06-07T08:58:08.456Z,100969.97
2019-06-07T09:00:47.084Z,100970.44
2019-06-07T09:03:07.844Z,100962.76
2019-06-07T09:05:38.119Z,100961.77
2019-06-07T09:08:28.258Z,100958.72
2019-06-07T09:10:40.288Z,100963.89
2019-06-07T09:13:11.875Z,100959.56
2019-06-07T09:15:42.323Z,100952.73
2019-06-07T09:20:48.916Z,100952.75
2019-06-07T09:23:22.623Z,100941.75
2019-06-07T09:26:02.578Z,100939.53
2019-06-07T09:28:25.337Z,100948.61
2019-06-07T09:30:57.877Z,100933.28
2019-06-07T09:33:28.718Z,100938.23
2019-06-07T09:36:01.586Z,100940.70
2019-06-07T09:38:30.924Z,100933.00
2019-06-07T09:41:04.490Z,100922.83
2019-06-07T09:46:12.986Z,100924.55
2019-06-07T09:51:19.742Z,100912.02
2019-06-07T09:53:47.779Z,100915.13
2019-06-07T09:56:18.402Z,100919.72
2019-06-07T09:58:52.513Z,100912.37
2019-06-07T10:01:20.679Z,100907.04
2019-06-07T10:03:51.573Z,100907.46
2019-06-07T10:06:21.861Z,100909.20
2019-06-07T10:11:24.308Z,100887.45
2019-06-07T10:13:54.532Z,100893.06
2019-06-07T10:16:24.804Z,100884.21
2019-06-07T10:18:55.126Z,100882.65
2019-06-07T10:21:25.452Z,100884.08
2019-06-07T10:23:55.715Z,100880.24
2019-06-07T10:26:25.942Z,100865.72
2019-06-07T10:28:56.183Z,100856.37
2019-06-07T10:31:26.427Z,100855.79
2019-06-07T10:33:56.749Z,100866.76
2019-06-07T10:36:26.999Z,100862.71
2019-06-07T10:38:57.265Z,100861.36
2019-06-07T10:41:27.544Z,100861.47
2019-06-07T10:43:57.829Z,100844.95
2019-06-07T10:46:28.070Z,100849.88
2019-06-07T10:48:58.437Z,100846.20
2019-06-07T10:51:28.639Z,100849.40
2019-06-07T10:53:58.830Z,100839.39
2019-06-07T10:56:29.060Z,100839.73
2019-06-07T10:58:59.263Z,100825.88
2019-06-07T11:01:29.460Z,100833.52
2019-06-07T11:03:59.800Z,100823.52
2019-06-07T11:06:31.154Z,100828.84
2019-06-07T11:09:01.348Z,100824.75
2019-06-07T11:11:33.064Z,100825.12
2019-06-07T11:14:04.357Z,100816.66
2019-06-07T11:16:34.650Z,100807.98
2019-06-07T11:19:06.054Z,100804.40
2019-06-07T11:21:36.359Z,100807.59
2019-06-07T11:24:06.593Z,100799.33
2019-06-07T11:26:36.848Z,100793.51
2019-06-07T11:29:08.840Z,100793.92
2019-06-07T11:31:40.280Z,100794.41
2019-06-07T11:34:10.553Z,100791.26
2019-06-07T11:36:40.717Z,100787.28
2019-06-07T11:39:11.204Z,100782.64
2019-06-07T11:41:41.396Z,100785.08
2019-06-07T11:44:12.874Z,100774.72
2019-06-07T11:46:43.218Z,100776.09
2019-06-07T11:49:19.906Z,100769.05
2019-06-07T11:51:45.522Z,100764.80
2019-06-07T11:54:16.202Z,100762.02
2019-06-07T11:56:46.569Z,100763.55
2019-06-07T11:59:17.863Z,100759.55
2019-06-07T12:01:48.069Z,100751.73
2019-06-07T12:04:32.519Z,100747.00
2019-06-07T12:06:50.281Z,100745.45
2019-06-07T12:09:20.473Z,100747.56
2019-06-07T12:11:52.217Z,100740.20
2019-06-07T12:14:24.432Z,100728.17
2019-06-07T12:16:54.423Z,100720.38
2019-06-07T12:19:29.112Z,100725.77
2019-06-07T12:22:06.101Z,100720.72
2019-06-07T12:24:39.285Z,100714.55
2019-06-07T12:27:08.269Z,100706.56
2019-06-07T12:29:38.495Z,100707.56
2019-06-07T12:32:08.764Z,100700.92
2019-06-07T12:34:39.109Z,100705.98
2019-06-07T12:37:09.497Z,100701.82
2019-06-07T12:39:39.713Z,100701.66
2019-06-07T12:42:12.410Z,100699.38
2019-06-07T12:44:43.591Z,100686.14
2019-06-07T12:47:15.027Z,100681.50
2019-06-07T12:49:45.314Z,100685.27
2019-06-07T12:52:17.712Z,100674.36
2019-06-07T12:54:48.286Z,100675.73
2019-06-07T12:57:20.047Z,100673.22
2019-06-07T12:59:53.717Z,100677.16
2019-06-07T13:02:25.516Z,100661.56
2019-06-07T13:04:56.062Z,100652.73
2019-06-07T13:07:26.355Z,100663.28
2019-06-07T13:09:56.626Z,100658.70
2019-06-07T13:12:28.194Z,100660.89
2019-06-07T13:14:58.483Z,100667.05
2019-06-07T13:17:28.740Z,100651.30
2019-06-07T13:19:58.914Z,100651.83
2019-06-07T13:22:29.242Z,100642.23
2019-06-07T13:24:59.720Z,100642.10
2019-06-07T13:27:33.374Z,100618.59
2019-06-07T13:30:09.818Z,100639.91
2019-06-07T13:32:37.834Z,100629.72
2019-06-07T13:35:10.997Z,100633.79
2019-06-07T13:37:41.243Z,100634.84
2019-06-07T13:40:12.103Z,100625.14
2019-06-07T13:42:42.348Z,100630.86
2019-06-07T13:45:18.000Z,100619.67
2019-06-07T13:47:50.885Z,100619.80
2019-06-07T13:50:23.910Z,100606.36
2019-06-07T13:52:54.174Z,100606.36
2019-06-07T13:55:25.803Z,100612.23
2019-06-07T13:57:56.015Z,100599.05
2019-06-07T14:00:26.655Z,100586.62
2019-06-07T14:02:57.217Z,100587.42
2019-06-07T14:05:36.307Z,100595.88
2019-06-07T14:08:09.959Z,100596.25
2019-06-07T14:10:44.008Z,100583.73
2019-06-07T14:13:14.313Z,100588.86
2019-06-07T14:15:44.948Z,100581.64
2019-06-07T14:18:26.499Z,100579.13
2019-06-07T14:20:58.977Z,100579.13
2019-06-07T14:23:45.757Z,100571.64
2019-06-07T14:26:01.406Z,100556.42
2019-06-07T14:28:34.223Z,100545.28
2019-06-07T14:31:05.627Z,100550.87
2019-06-07T14:33:40.990Z,100537.59
2019-06-07T14:36:11.172Z,100545.27
2019-06-07T14:38:41.380Z,100529.66
2019-06-07T14:41:11.834Z,100531.28
2019-06-07T14:43:42.246Z,100530.91
2019-06-07T14:46:12.633Z,100527.56
2019-06-07T14:48:42.854Z,100524.52
2019-06-07T14:51:13.085Z,100512.27
2019-06-07T14:53:43.298Z,100509.58
2019-06-07T14:56:13.666Z,100504.80
2019-06-07T14:58:43.999Z,100480.42
2019-06-07T15:01:14.375Z,100489.77
2019-06-07T15:03:44.565Z,100485.47
2019-06-07T15:06:15.963Z,100482.61
2019-06-07T15:08:46.148Z,100481.36
2019-06-07T15:11:16.436Z,100467.96
2019-06-07T15:13:47.757Z,100472.44
2019-06-07T15:16:23.108Z,100456.45
2019-06-07T15:18:53.362Z,100459.58
2019-06-07T15:21:24.677Z,100460.25
2019-06-07T15:23:57.568Z,100455.62
2019-06-07T15:26:28.352Z,100453.61
2019-06-07T15:28:58.711Z,100445.87
2019-06-07T15:31:32.116Z,100446.73
2019-06-07T15:34:02.388Z,100441.42
2019-06-07T15:36:34.422Z,100441.62
2019-06-07T15:39:07.210Z,100433.64
2019-06-07T15:41:39.787Z,100419.31
2019-06-07T15:44:13.855Z,100412.42
2019-06-07T15:46:44.095Z,100402.02
2019-06-07T15:49:14.334Z,100388.47
2019-06-07T15:51:45.830Z,100395.41
2019-06-07T15:54:16.024Z,100391.63
2019-06-07T15:56:46.287Z,100386.69
2019-06-07T15:59:16.532Z,100380.03
2019-06-07T16:01:48.768Z,100369.25
2019-06-07T16:04:18.950Z,100358.16
2019-06-07T16:06:49.155Z,100341.92
2019-06-07T16:09:19.374Z,100337.45
2019-06-07T16:11:56.352Z,100342.89
2019-06-07T16:14:29.560Z,100341.41
2019-06-07T16:17:05.255Z,100350.11
2019-06-07T16:19:44.457Z,100342.42
2019-06-07T16:22:14.432Z,100345.20
2019-06-07T16:24:47.529Z,100357.67
2019-06-07T16:27:18.277Z,100360.73
2019-06-07T16:29:48.892Z,100362.92
2019-06-07T16:32:25.049Z,100373.52
2019-06-07T16:34:57.341Z,100370.76
2019-06-07T16:37:27.785Z,100361.23
2019-06-07T16:40:00.011Z,100374.91
2019-06-07T16:42:30.249Z,100359.45
2019-06-07T16:45:08.700Z,100362.47
2019-06-07T16:47:42.315Z,100357.12
2019-06-07T16:50:13.670Z,100354.40
2019-06-07T16:52:46.459Z,100363.02
2019-06-07T16:55:16.356Z,100380.41
2019-06-07T16:57:46.552Z,100380.55
2019-06-07T17:00:17.387Z,100387.89
2019-06-07T17:02:48.861Z,100386.16
2019-06-07T17:05:24.763Z,100381.57
2019-06-07T17:07:59.256Z,100378.43
2019-06-07T17:10:30.518Z,100375.08
2019-06-07T17:13:00.922Z,100375.67
2019-06-07T17:15:31.121Z,100367.90
2019-06-07T17:18:06.990Z,100364.02
2019-06-07T17:20:37.187Z,100373.69
2019-06-07T17:23:09.556Z,100366.19
2019-06-07T17:25:43.514Z,100368.25
2019-06-07T17:28:14.859Z,100372.34
2019-06-07T17:30:46.115Z,100371.59
2019-06-07T17:33:19.323Z,100362.44
2019-06-07T17:35:50.592Z,100369.47
2019-06-07T17:38:21.203Z,100359.72
2019-06-07T17:40:51.548Z,100364.16
2019-06-07T17:43:21.827Z,100367.91
2019-06-07T17:45:56.779Z,100374.11
2019-06-07T17:48:37.745Z,100374.23
2019-06-07T17:51:08.388Z,100375.05
2019-06-07T17:53:38.615Z,100365.56
2019-06-07T17:56:08.773Z,100363.54
2019-06-07T17:58:39.032Z,100366.98
2019-06-07T18:01:10.093Z,100371.59
2019-06-07T18:03:40.381Z,100370.95
2019-06-07T18:06:16.612Z,100370.95
2019-06-07T18:08:51.667Z,100359.77
2019-06-07T18:11:22.929Z,100362.27
2019-06-07T18:14:10.156Z,100355.80
2019-06-07T18:16:28.714Z,100365.66
2019-06-07T18:19:01.048Z,100374.02
2019-06-07T18:21:31.544Z,100377.77
2019-06-07T18:24:04.596Z,100374.66
2019-06-07T18:26:39.005Z,100371.57
2019-06-07T18:29:12.504Z,100355.61
2019-06-07T18:31:42.688Z,100349.56
2019-06-07T18:34:13.033Z,100359.28
2019-06-07T18:36:43.220Z,100358.56
2019-06-07T18:39:13.194Z,100351.73
2019-06-07T18:41:43.391Z,100346.37
2019-06-07T18:44:21.557Z,100346.45
2019-06-07T18:46:50.142Z,100342.78
2019-06-07T18:49:23.951Z,100355.73
2019-06-07T18:52:20.921Z,100360.18
2019-06-07T18:54:53.114Z,100369.86
2019-06-07T18:57:28.326Z,100372.09
2019-06-07T18:59:58.944Z,100372.70
2019-06-07T19:02:29.712Z,100380.09
2019-06-07T19:05:01.729Z,100379.08
2019-06-07T19:07:32.007Z,100378.56
2019-06-07T19:10:06.405Z,100384.84
2019-06-07T19:12:36.597Z,100388.28
2019-06-07T19:15:08.115Z,100404.88
2019-06-07T19:17:38.581Z,100410.76
2019-06-07T19:20:09.173Z,100405.23
2019-06-07T19:22:41.398Z,100391.12
2019-06-07T19:25:12.214Z,100393.45
2019-06-07T19:27:42.654Z,100404.38
2019-06-07T19:30:15.566Z,100409.28
2019-06-07T19:32:49.760Z,100419.37
2019-06-07T19:35:20.274Z,100426.73
2019-06-07T19:37:51.778Z,100430.77
2019-06-07T19:40:22.152Z,100431.48
2019-06-07T19:42:52.293Z,100445.64
2019-06-07T19:45:31.523Z,100450.19
2019-06-07T19:47:58.705Z,100450.19
2019-06-07T19:50:29.008Z,100454.58
2019-06-07T19:52:59.600Z,100448.32
2019-06-07T19:55:29.938Z,100448.91
2019-06-07T19:58:01.787Z,100453.34
2019-06-07T20:00:32.171Z,100455.78
2019-06-07T20:03:05.199Z,100466.12
2019-06-07T20:05:38.234Z,100465.48
2019-06-07T20:08:08.568Z,100474.80
2019-06-07T20:10:38.973Z,100486.94
2019-06-07T20:13:09.188Z,100517.22
2019-06-07T20:15:39.618Z,100552.46
2019-06-07T20:18:12.520Z,100564.68
2019-06-07T20:20:44.716Z,100589.56
2019-06-07T20:23:15.113Z,100627.30
2019-06-07T20:25:45.340Z,100630.72
2019-06-07T20:28:15.567Z,100628.77
2019-06-07T20:30:47.936Z,100682.63
2019-06-07T20:33:28.673Z,100723.75
2019-06-07T20:35:50.123Z,100765.19
2019-06-07T20:38:20.363Z,100776.31
2019-06-07T20:40:50.662Z,100796.37
2019-06-07T20:43:21.136Z,100811.56
2019-06-07T20:45:51.423Z,100824.52
2019-06-07T20:48:26.575Z,100817.75
2019-06-07T20:51:00.613Z,100760.79
2019-06-07T20:53:31.869Z,100697.91
2019-06-07T20:56:04.597Z,100614.48
2019-06-07T20:58:37.166Z,100638.60
2019-06-07T21:01:09.048Z,100732.61
2019-06-07T21:03:41.413Z,100723.66
2019-06-07T21:06:11.811Z,100710.44
2019-06-07T21:08:42.528Z,100704.23
2019-06-07T21:11:12.848Z,100715.75
2019-06-07T21:13:43.159Z,100732.56
2019-06-07T21:16:13.341Z,100728.48
2019-06-07T21:18:43.526Z,100758.06
2019-06-07T21:21:13.887Z,100793.54
2019-06-07T21:23:44.233Z,100821.97
2019-06-07T21:26:14.439Z,100831.92
2019-06-07T21:28:44.848Z,100834.05
2019-06-07T21:31:16.753Z,100827.16
2019-06-07T21:33:47.359Z,100827.75
2019-06-07T21:36:17.880Z,100812.17
2019-06-07T21:38:48.746Z,100818.35
2019-06-07T21:41:22.025Z,100821.03
2019-06-07T21:43:52.246Z,100840.64
2019-06-07T21:46:23.547Z,100815.80
2019-06-07T21:48:53.716Z,100814.94
2019-06-07T21:51:24.213Z,100806.13
2019-06-07T21:53:55.489Z,100792.39
2019-06-07T21:56:25.715Z,100794.17
2019-06-07T21:58:55.933Z,100798.77
2019-06-07T22:01:30.101Z,100788.25
2019-06-07T22:04:00.329Z,100786.80
2019-06-07T22:06:30.573Z,100797.38
2019-06-07T22:09:03.827Z,100784.39
2019-06-07T22:11:34.946Z,100765.81
2019-06-07T22:14:06.247Z,100778.41
2019-06-07T22:16:36.721Z,100792.46
2019-06-07T22:19:06.986Z,100779.75
2019-06-07T22:21:37.304Z,100781.72
2019-06-07T22:24:08.809Z,100784.99
2019-06-07T22:26:39.235Z,100756.75
2019-06-07T22:29:10.300Z,100739.15
2019-06-07T22:31:41.100Z,100751.66
2019-06-07T22:34:12.712Z,100770.84
2019-06-07T22:36:43.155Z,100775.41
2019-06-07T22:39:13.968Z,100747.98
2019-06-07T22:41:44.624Z,100743.95
2019-06-07T22:44:14.968Z,100730.73
2019-06-07T22:46:50.059Z,100741.48
2019-06-07T22:49:20.400Z,100745.50
2019-06-07T22:51:50.901Z,100779.66
2019-06-07T22:54:21.179Z,100811.70
2019-06-07T22:56:56.454Z,100829.54
2019-06-07T22:59:26.635Z,100836.34
2019-06-07T23:01:56.822Z,100863.09
2019-06-07T23:04:27.000Z,100880.08
2019-06-07T23:06:57.225Z,100886.11
2019-06-07T23:09:27.955Z,100889.11
2019-06-07T23:11:59.696Z,100883.16
2019-06-07T23:14:29.890Z,100873.14
2019-06-07T23:17:00.206Z,100848.91
2019-06-07T23:19:30.421Z,100860.97
2019-06-07T23:22:00.772Z,100850.39
2019-06-07T23:24:30.957Z,100839.17
2019-06-07T23:27:02.266Z,100833.84
2019-06-07T23:29:32.521Z,100838.36
2019-06-07T23:32:02.679Z,100837.28
2019-06-07T23:34:33.423Z,100839.02
2019-06-07T23:37:03.615Z,100827.93
2019-06-07T23:39:33.838Z,100835.96
2019-06-07T23:42:03.987Z,100839.30
2019-06-07T23:44:34.583Z,100850.94
2019-06-07T23:47:11.296Z,100860.97
2019-06-07T23:49:36.620Z,100854.14
2019-06-07T23:52:06.884Z,100864.48
2019-06-07T23:54:37.106Z,100874.04
2019-06-07T23:57:07.224Z,100882.52
2019-06-07T23:59:56.464Z,100873.53
